Main page
METAR-TAF:

METAR-TAF

Airports :

Logroño–Agoncillo Airport

Logroño, Spain

latitude: 42-27N, longitude: 002-20W, elevation: 353 m

Current weather observation

The report was made 27 minutes ago, at 11:00 UTC
Wind 14 kt from the West/Southwest
Temperature 6°C
Humidity 75%
Pressure 1015 hPa
Visibility 10 km or more
Broken clouds at a height of 5000 ft

METAR: LELO 221100Z 25014KT 9999 BKN050 06/02 Q1015

Time: 12:27 (11:27 UTC)

Forecast

The report was made 3 hours and 27 minutes ago, at 08:00 UTC
Forecast valid from 22 at 09 UTC to 22 at 18 UTC
Wind 8 kt from the West
Visibility 10 km or more
Scattered clouds at a height of 4000 ft
Temporary
from 22 at 10 UTC to 22 at 18 UTC
Visibility: 3000 m
Broken clouds at a height of 1200 ft
drizzle, rain
Probability 30% :
Temporary
from 22 at 11 UTC to 22 at 17 UTC
Wind 15 kt from the West with gusts up to 25 kt

TAF: LELO 220800Z 2209/2218 27008KT 9999 SCT040 TEMPO 2210/2218 3000 DZRA BKN012 PROB30 TEMPO 2211/2217 28015G25KT

Weather observations and forecasts of more than 4000 airports (METAR and TAF reports).

The available stations are represented by yellow and red dots on the map.

Hover mouse over dot to see the name of the station.

Then click to see weather observations and forecasts.

To change the map : click on the green buttons with a black cross to zoom in, on the green button with a dash to zoom out, or on the green arrows for adjacent maps.


METAR-TAF: